Time;durP1;ratioP1;P1;durP2;ratioP2;P2;SDS_P1;SDS_P2;PMS_P1;PMS_P2;Temp;Humidity;BMP_temperature;BMP_pressure;BME280_temperature;BME280_humidity;BME280_pressure;Samples;Min_cycle;Max_cycle;Signal;HPM_P1;HPM_P2
2021/09/16 06:03:35;;;;;;;12.67;6.60;;;15.50;99.60;;;;;;5107053;27;20329;-68
2021/09/16 06:06:01;;;;;;;14.30;7.97;;;15.50;98.60;;;;;;5080528;28;20123;-69
2021/09/16 06:08:26;;;;;;;11.53;7.40;;;15.50;99.10;;;;;;5062335;28;20048;-70
2021/09/16 06:10:52;;;;;;;18.53;7.73;;;15.50;99.30;;;;;;5081055;28;20072;-72
2021/09/16 06:13:18;;;;;;;13.87;7.77;;;15.60;99.80;;;;;;5085514;28;20094;-71
2021/09/16 06:15:44;;;;;;;14.40;6.37;;;15.70;99.90;;;;;;5085621;28;20543;-71
2021/09/16 06:18:09;;;;;;;17.53;7.53;;;15.70;99.90;;;;;;5067826;28;20071;-71
2021/09/16 06:20:35;;;;;;;12.23;6.20;;;15.70;99.90;;;;;;5067415;28;20399;-72
2021/09/16 06:23:01;;;;;;;17.90;6.03;;;15.80;99.90;;;;;;5067303;28;20143;-72
2021/09/16 06:25:28;;;;;;;15.47;5.87;;;15.80;99.90;;;;;;5066876;28;20040;-70
2021/09/16 06:27:54;;;;;;;8.73;5.50;;;15.90;99.90;;;;;;5085588;28;20056;-72
2021/09/16 06:30:19;;;;;;;14.13;5.77;;;15.90;99.90;;;;;;5067716;28;20132;-71
2021/09/16 06:32:46;;;;;;;15.80;5.70;;;15.90;99.90;;;;;;5055364;28;20140;-71
2021/09/16 06:35:12;;;;;;;11.53;6.03;;;16.00;99.90;;;;;;5057048;28;20048;-71
2021/09/16 06:37:38;;;;;;;13.90;5.47;;;16.00;99.90;;;;;;5067330;28;20079;-65
2021/09/16 06:40:04;;;;;;;10.40;5.77;;;16.10;99.90;;;;;;5084759;28;20080;-65
2021/09/16 06:42:29;;;;;;;14.80;5.70;;;16.10;99.90;;;;;;5085347;28;20044;-67
2021/09/16 06:44:55;;;;;;;11.33;5.07;;;16.10;99.90;;;;;;5084990;28;20071;-68
2021/09/16 06:47:20;;;;;;;13.53;5.50;;;16.10;99.90;;;;;;5084347;28;20051;-68
2021/09/16 06:49:46;;;;;;;13.63;5.30;;;16.10;99.90;;;;;;5085105;28;20151;-67
2021/09/16 06:52:13;;;;;;;14.33;5.57;;;16.20;99.90;;;;;;5085907;28;20404;-68
2021/09/16 06:54:39;;;;;;;13.37;5.97;;;16.30;99.90;;;;;;5066563;28;20476;-68
2021/09/16 06:57:05;;;;;;;13.50;5.43;;;16.30;99.90;;;;;;5067197;28;20105;-68
2021/09/16 06:59:30;;;;;;;11.97;5.13;;;16.30;99.90;;;;;;5085170;28;20139;-70
2021/09/16 07:01:56;;;;;;;12.13;4.87;;;16.40;99.80;;;;;;5083830;28;20094;-70
2021/09/16 07:04:21;;;;;;;10.90;5.00;;;16.40;99.60;;;;;;5066675;28;20052;-70
2021/09/16 07:06:50;;;;;;;11.20;4.47;;;16.40;99.50;;;;;;5084785;28;20059;-68
2021/09/16 07:09:15;;;;;;;13.47;4.57;;;16.50;99.40;;;;;;5084351;28;20181;-68
2021/09/16 07:11:41;;;;;;;12.13;4.57;;;16.50;99.30;;;;;;5084314;28;20159;-68
2021/09/16 07:14:07;;;;;;;12.47;4.53;;;16.50;99.20;;;;;;5057324;28;20059;-68
2021/09/16 07:16:32;;;;;;;13.40;4.50;;;16.60;99.10;;;;;;5053073;28;20153;-70
2021/09/16 07:18:58;;;;;;;13.27;4.37;;;16.60;99.00;;;;;;5071356;28;20498;-70
2021/09/16 07:21:23;;;;;;;10.57;3.93;;;16.60;98.90;;;;;;5071424;28;20048;-68
2021/09/16 07:23:49;;;;;;;17.57;4.60;;;16.70;98.90;;;;;;5052742;28;20049;-69
2021/09/16 07:26:15;;;;;;;10.90;4.27;;;16.70;98.70;;;;;;5071394;28;20041;-68
2021/09/16 07:28:40;;;;;;;12.30;4.23;;;16.70;98.70;;;;;;5051705;28;20453;-70
2021/09/16 07:31:06;;;;;;;15.50;4.37;;;16.70;98.60;;;;;;5053171;28;20573;-67
2021/09/16 07:33:32;;;;;;;10.50;4.00;;;16.70;98.50;;;;;;5071477;28;20048;-65
2021/09/16 07:35:58;;;;;;;12.53;4.17;;;16.80;98.50;;;;;;5070156;28;20474;-68
2021/09/16 07:38:24;;;;;;;11.27;3.90;;;16.80;98.40;;;;;;5053570;28;20037;-68
2021/09/16 07:40:50;;;;;;;14.00;4.20;;;16.80;98.30;;;;;;5053200;28;20053;-67
2021/09/16 07:43:16;;;;;;;14.07;4.07;;;16.80;98.30;;;;;;5052878;28;20044;-67
2021/09/16 07:45:42;;;;;;;10.67;4.07;;;16.80;98.30;;;;;;5053387;28;20052;-68
2021/09/16 07:48:08;;;;;;;11.77;4.27;;;16.80;98.30;;;;;;5071561;28;20048;-68
2021/09/16 07:50:33;;;;;;;11.77;4.00;;;16.90;98.40;;;;;;5052106;28;20129;-67
2021/09/16 07:52:59;;;;;;;14.07;4.70;;;16.90;98.30;;;;;;5052945;28;20532;-71
2021/09/16 07:55:25;;;;;;;9.53;4.50;;;17.00;98.30;;;;;;5053012;28;20101;-69
2021/09/16 07:57:51;;;;;;;12.53;4.53;;;17.00;98.20;;;;;;5070163;28;20136;-66
2021/09/16 08:00:16;;;;;;;8.77;3.83;;;17.00;98.10;;;;;;5050794;28;20040;-65
2021/09/16 08:02:48;;;;;;;10.37;4.80;;;17.00;98.00;;;;;;5067465;28;20056;-65
2021/09/16 08:05:15;;;;;;;12.37;4.40;;;17.00;98.00;;;;;;5070262;28;20405;-66
2021/09/16 08:07:40;;;;;;;21.07;4.93;;;17.10;98.00;;;;;;5070620;28;20050;-65
2021/09/16 08:10:07;;;;;;;13.03;4.27;;;17.10;98.00;;;;;;5070816;28;20559;-64
2021/09/16 08:12:32;;;;;;;13.10;3.80;;;17.10;98.00;;;;;;5070055;28;20040;-64
2021/09/16 08:14:58;;;;;;;14.53;4.10;;;17.10;97.80;;;;;;5052267;28;20105;-64
2021/09/16 08:17:24;;;;;;;12.40;4.13;;;17.10;97.70;;;;;;5069469;28;20093;-67
2021/09/16 08:19:50;;;;;;;13.90;4.20;;;17.10;97.60;;;;;;5067310;28;20510;-66
2021/09/16 08:22:16;;;;;;;8.27;3.77;;;17.10;97.60;;;;;;5070201;28;20041;-66
2021/09/16 08:24:43;;;;;;;9.07;3.57;;;17.10;97.50;;;;;;5069460;28;20045;-68
2021/09/16 08:27:08;;;;;;;16.17;3.77;;;17.10;97.50;;;;;;5051487;28;20048;-67
2021/09/16 08:29:34;;;;;;;9.00;3.47;;;17.10;97.40;;;;;;5052311;28;20569;-67
2021/09/16 08:32:00;;;;;;;13.63;4.20;;;17.10;97.20;;;;;;5051547;28;20483;-66
2021/09/16 08:34:27;;;;;;;13.30;4.33;;;17.20;97.30;;;;;;5052302;28;20658;-67
2021/09/16 08:36:54;;;;;;;9.63;3.80;;;17.20;97.20;;;;;;5069722;28;20064;-67
2021/09/16 08:39:20;;;;;;;10.83;3.10;;;17.20;97.00;;;;;;5069342;28;20051;-67
2021/09/16 08:41:46;;;;;;;12.40;3.80;;;17.20;96.80;;;;;;5069520;28;20041;-67
2021/09/16 08:44:12;;;;;;;10.07;3.00;;;17.20;96.70;;;;;;5069841;28;20045;-67
2021/09/16 08:46:38;;;;;;;15.57;3.87;;;17.20;96.70;;;;;;5051368;28;20040;-68
